sensor_id;sensor_type;location;lat;lon;timestamp;temperature;humidity
56322;DHT22;42227;6.376;-10.782;2022-11-20T00:01:30;25.10;99.90
56322;DHT22;42227;6.376;-10.782;2022-11-20T00:03:59;25.00;99.90
56322;DHT22;42227;6.376;-10.782;2022-11-20T00:06:28;25.10;99.90
56322;DHT22;42227;6.376;-10.782;2022-11-20T00:08:58;25.30;99.90
56322;DHT22;42227;6.376;-10.782;2022-11-20T00:11:28;25.30;99.90
56322;DHT22;42227;6.376;-10.782;2022-11-20T00:13:59;25.20;99.90
56322;DHT22;42227;6.376;-10.782;2022-11-20T00:16:29;25.10;99.90
56322;DHT22;42227;6.376;-10.782;2022-11-20T00:18:58;25.20;99.90
56322;DHT22;42227;6.376;-10.782;2022-11-20T00:21:27;25.30;99.90
56322;DHT22;42227;6.376;-10.782;2022-11-20T00:23:57;25.30;99.90
56322;DHT22;42227;6.376;-10.782;2022-11-20T00:26:27;25.30;99.90
56322;DHT22;42227;6.376;-10.782;2022-11-20T00:29:00;25.40;99.90
56322;DHT22;42227;6.376;-10.782;2022-11-20T00:31:29;25.30;99.90
56322;DHT22;42227;6.376;-10.782;2022-11-20T00:33:58;25.10;99.90
56322;DHT22;42227;6.376;-10.782;2022-11-20T00:36:27;25.20;99.90
56322;DHT22;42227;6.376;-10.782;2022-11-20T00:38:57;25.40;99.90
56322;DHT22;42227;6.376;-10.782;2022-11-20T00:41:27;25.30;99.90
56322;DHT22;42227;6.376;-10.782;2022-11-20T00:43:56;25.30;99.90
56322;DHT22;42227;6.376;-10.782;2022-11-20T00:46:26;25.40;99.90
56322;DHT22;42227;6.376;-10.782;2022-11-20T00:48:55;25.40;99.90
56322;DHT22;42227;6.376;-10.782;2022-11-20T00:51:26;25.30;99.90
56322;DHT22;42227;6.376;-10.782;2022-11-20T00:53:58;25.30;99.90
56322;DHT22;42227;6.376;-10.782;2022-11-20T00:56:26;25.50;99.90
56322;DHT22;42227;6.376;-10.782;2022-11-20T00:58:55;25.50;99.90
56322;DHT22;42227;6.376;-10.782;2022-11-20T01:01:25;25.50;99.90
56322;DHT22;42227;6.376;-10.782;2022-11-20T01:03:56;25.50;99.90
56322;DHT22;42227;6.376;-10.782;2022-11-20T01:06:33;25.50;99.90
56322;DHT22;42227;6.376;-10.782;2022-11-20T01:09:04;25.50;99.90
56322;DHT22;42227;6.376;-10.782;2022-11-20T01:11:38;25.50;99.90
56322;DHT22;42227;6.376;-10.782;2022-11-20T01:14:11;25.40;99.90
56322;DHT22;42227;6.376;-10.782;2022-11-20T01:16:43;25.50;99.90
56322;DHT22;42227;6.376;-10.782;2022-11-20T01:19:14;25.30;99.90
56322;DHT22;42227;6.376;-10.782;2022-11-20T01:21:47;25.50;99.90
56322;DHT22;42227;6.376;-10.782;2022-11-20T01:24:18;25.50;99.90
56322;DHT22;42227;6.376;-10.782;2022-11-20T01:26:48;25.50;99.90
56322;DHT22;42227;6.376;-10.782;2022-11-20T01:29:20;25.50;99.90
56322;DHT22;42227;6.376;-10.782;2022-11-20T01:31:50;25.70;99.90
56322;DHT22;42227;6.376;-10.782;2022-11-20T01:34:19;25.80;99.90
56322;DHT22;42227;6.376;-10.782;2022-11-20T01:36:48;25.80;99.90
56322;DHT22;42227;6.376;-10.782;2022-11-20T01:39:19;25.70;99.90
56322;DHT22;42227;6.376;-10.782;2022-11-20T01:41:50;26.00;99.90
56322;DHT22;42227;6.376;-10.782;2022-11-20T01:44:21;26.30;99.90
56322;DHT22;42227;6.376;-10.782;2022-11-20T01:47:02;26.20;99.90
56322;DHT22;42227;6.376;-10.782;2022-11-20T01:49:40;26.30;99.90
56322;DHT22;42227;6.376;-10.782;2022-11-20T01:52:23;26.40;99.90
56322;DHT22;42227;6.376;-10.782;2022-11-20T01:54:56;26.30;99.90
56322;DHT22;42227;6.376;-10.782;2022-11-20T01:57:30;26.10;99.90
56322;DHT22;42227;6.376;-10.782;2022-11-20T02:00:09;26.30;99.90
56322;DHT22;42227;6.376;-10.782;2022-11-20T02:02:51;26.40;99.90
56322;DHT22;42227;6.376;-10.782;2022-11-20T02:06:06;26.30;99.90
56322;DHT22;42227;6.376;-10.782;2022-11-20T02:08:26;26.20;99.90
56322;DHT22;42227;6.376;-10.782;2022-11-20T02:10:54;26.40;99.90
56322;DHT22;42227;6.376;-10.782;2022-11-20T02:13:23;26.50;99.90
56322;DHT22;42227;6.376;-10.782;2022-11-20T02:15:51;26.20;99.90
56322;DHT22;42227;6.376;-10.782;2022-11-20T02:18:21;26.30;99.90
56322;DHT22;42227;6.376;-10.782;2022-11-20T02:21:00;26.40;99.90
56322;DHT22;42227;6.376;-10.782;2022-11-20T02:24:03;26.50;99.90
56322;DHT22;42227;6.376;-10.782;2022-11-20T02:26:31;26.10;99.90
56322;DHT22;42227;6.376;-10.782;2022-11-20T02:29:00;26.20;99.90
56322;DHT22;42227;6.376;-10.782;2022-11-20T02:31:37;26.10;99.90
56322;DHT22;42227;6.376;-10.782;2022-11-20T02:34:06;26.10;99.90
56322;DHT22;42227;6.376;-10.782;2022-11-20T02:36:36;26.10;99.90
56322;DHT22;42227;6.376;-10.782;2022-11-20T02:39:06;26.10;99.90
56322;DHT22;42227;6.376;-10.782;2022-11-20T02:41:37;26.20;99.90
56322;DHT22;42227;6.376;-10.782;2022-11-20T02:44:06;25.90;99.90
56322;DHT22;42227;6.376;-10.782;2022-11-20T02:46:34;25.70;99.90
56322;DHT22;42227;6.376;-10.782;2022-11-20T02:49:03;25.50;99.90
56322;DHT22;42227;6.376;-10.782;2022-11-20T02:51:32;25.40;99.90
56322;DHT22;42227;6.376;-10.782;2022-11-20T02:54:00;25.30;99.90
56322;DHT22;42227;6.376;-10.782;2022-11-20T02:56:29;25.30;99.90
56322;DHT22;42227;6.376;-10.782;2022-11-20T02:58:57;25.50;99.90
56322;DHT22;42227;6.376;-10.782;2022-11-20T03:01:25;25.50;99.90
56322;DHT22;42227;6.376;-10.782;2022-11-20T03:03:54;25.40;99.90
56322;DHT22;42227;6.376;-10.782;2022-11-20T03:06:22;25.40;99.90
56322;DHT22;42227;6.376;-10.782;2022-11-20T03:08:50;25.40;99.90
56322;DHT22;42227;6.376;-10.782;2022-11-20T03:11:18;25.30;99.90
56322;DHT22;42227;6.376;-10.782;2022-11-20T03:13:47;25.30;99.90
56322;DHT22;42227;6.376;-10.782;2022-11-20T03:16:18;25.50;99.90
56322;DHT22;42227;6.376;-10.782;2022-11-20T03:18:46;25.40;99.90
56322;DHT22;42227;6.376;-10.782;2022-11-20T03:21:15;25.30;99.90
56322;DHT22;42227;6.376;-10.782;2022-11-20T03:23:44;25.20;99.90
56322;DHT22;42227;6.376;-10.782;2022-11-20T03:26:16;25.30;99.90
56322;DHT22;42227;6.376;-10.782;2022-11-20T03:28:50;25.40;99.90
56322;DHT22;42227;6.376;-10.782;2022-11-20T03:31:21;25.30;99.90
56322;DHT22;42227;6.376;-10.782;2022-11-20T03:33:50;25.40;99.90
56322;DHT22;42227;6.376;-10.782;2022-11-20T03:36:19;25.50;99.90
56322;DHT22;42227;6.376;-10.782;2022-11-20T03:38:48;25.60;99.90
56322;DHT22;42227;6.376;-10.782;2022-11-20T03:41:23;25.30;99.90
56322;DHT22;42227;6.376;-10.782;2022-11-20T03:43:54;25.30;99.90
56322;DHT22;42227;6.376;-10.782;2022-11-20T03:46:23;25.40;99.90
56322;DHT22;42227;6.376;-10.782;2022-11-20T03:48:51;25.30;99.90
56322;DHT22;42227;6.376;-10.782;2022-11-20T03:51:22;25.20;99.90
56322;DHT22;42227;6.376;-10.782;2022-11-20T03:53:53;25.10;99.90
56322;DHT22;42227;6.376;-10.782;2022-11-20T03:56:30;25.10;99.90
56322;DHT22;42227;6.376;-10.782;2022-11-20T03:58:59;25.00;99.90
56322;DHT22;42227;6.376;-10.782;2022-11-20T04:01:33;24.90;99.90
56322;DHT22;42227;6.376;-10.782;2022-11-20T04:04:01;24.90;99.90
56322;DHT22;42227;6.376;-10.782;2022-11-20T04:06:34;25.10;99.90
56322;DHT22;42227;6.376;-10.782;2022-11-20T04:09:03;25.00;99.90
56322;DHT22;42227;6.376;-10.782;2022-11-20T04:11:36;25.00;99.90
56322;DHT22;42227;6.376;-10.782;2022-11-20T04:14:07;25.00;99.90
56322;DHT22;42227;6.376;-10.782;2022-11-20T04:16:40;24.80;99.90
56322;DHT22;42227;6.376;-10.782;2022-11-20T04:19:13;24.80;99.90
56322;DHT22;42227;6.376;-10.782;2022-11-20T04:21:42;24.80;99.90
56322;DHT22;42227;6.376;-10.782;2022-11-20T04:24:11;24.90;99.90
56322;DHT22;42227;6.376;-10.782;2022-11-20T04:26:40;24.80;99.90
56322;DHT22;42227;6.376;-10.782;2022-11-20T04:29:11;24.80;99.90
56322;DHT22;42227;6.376;-10.782;2022-11-20T04:31:39;24.90;99.90
56322;DHT22;42227;6.376;-10.782;2022-11-20T04:34:07;25.00;99.90
56322;DHT22;42227;6.376;-10.782;2022-11-20T04:36:36;24.80;99.90
56322;DHT22;42227;6.376;-10.782;2022-11-20T04:39:05;24.70;99.90
56322;DHT22;42227;6.376;-10.782;2022-11-20T04:41:35;24.60;99.90
56322;DHT22;42227;6.376;-10.782;2022-11-20T04:44:05;24.50;99.90
56322;DHT22;42227;6.376;-10.782;2022-11-20T04:46:36;24.40;99.90
56322;DHT22;42227;6.376;-10.782;2022-11-20T04:49:05;24.60;99.90
56322;DHT22;42227;6.376;-10.782;2022-11-20T04:51:34;24.70;99.90
56322;DHT22;42227;6.376;-10.782;2022-11-20T04:54:02;24.40;99.90
56322;DHT22;42227;6.376;-10.782;2022-11-20T04:56:31;24.30;99.90
56322;DHT22;42227;6.376;-10.782;2022-11-20T04:59:02;24.40;99.90
56322;DHT22;42227;6.376;-10.782;2022-11-20T05:01:31;24.40;99.90
56322;DHT22;42227;6.376;-10.782;2022-11-20T05:03:59;24.40;99.90
56322;DHT22;42227;6.376;-10.782;2022-11-20T05:06:27;24.40;99.90
56322;DHT22;42227;6.376;-10.782;2022-11-20T05:08:55;24.50;99.90
56322;DHT22;42227;6.376;-10.782;2022-11-20T05:11:23;24.50;99.90
56322;DHT22;42227;6.376;-10.782;2022-11-20T05:13:52;24.30;99.90
56322;DHT22;42227;6.376;-10.782;2022-11-20T05:16:22;24.40;99.90
56322;DHT22;42227;6.376;-10.782;2022-11-20T05:18:52;24.50;99.90
56322;DHT22;42227;6.376;-10.782;2022-11-20T05:21:21;24.40;99.90
56322;DHT22;42227;6.376;-10.782;2022-11-20T05:23:50;24.30;99.90
56322;DHT22;42227;6.376;-10.782;2022-11-20T05:26:20;24.40;99.90
56322;DHT22;42227;6.376;-10.782;2022-11-20T05:28:50;24.50;99.90
56322;DHT22;42227;6.376;-10.782;2022-11-20T05:31:21;24.40;99.90
56322;DHT22;42227;6.376;-10.782;2022-11-20T05:33:56;24.30;99.90
56322;DHT22;42227;6.376;-10.782;2022-11-20T05:36:25;24.50;99.90
56322;DHT22;42227;6.376;-10.782;2022-11-20T05:38:53;24.40;99.90
56322;DHT22;42227;6.376;-10.782;2022-11-20T05:41:28;24.30;99.90
56322;DHT22;42227;6.376;-10.782;2022-11-20T05:43:56;24.40;99.90
56322;DHT22;42227;6.376;-10.782;2022-11-20T05:46:25;24.40;99.90
56322;DHT22;42227;6.376;-10.782;2022-11-20T05:48:57;24.30;99.90
56322;DHT22;42227;6.376;-10.782;2022-11-20T05:51:26;24.20;99.90
56322;DHT22;42227;6.376;-10.782;2022-11-20T05:53:56;24.30;99.90
56322;DHT22;42227;6.376;-10.782;2022-11-20T05:56:25;24.30;99.90
56322;DHT22;42227;6.376;-10.782;2022-11-20T05:58:53;24.20;99.90
56322;DHT22;42227;6.376;-10.782;2022-11-20T06:01:23;24.20;99.90
56322;DHT22;42227;6.376;-10.782;2022-11-20T06:03:53;24.20;99.90
56322;DHT22;42227;6.376;-10.782;2022-11-20T06:06:22;24.20;99.90
56322;DHT22;42227;6.376;-10.782;2022-11-20T06:08:50;24.20;99.90
56322;DHT22;42227;6.376;-10.782;2022-11-20T06:11:18;24.20;99.90
56322;DHT22;42227;6.376;-10.782;2022-11-20T06:13:47;24.10;99.90
56322;DHT22;42227;6.376;-10.782;2022-11-20T06:16:17;24.20;99.90
56322;DHT22;42227;6.376;-10.782;2022-11-20T06:18:47;24.10;99.90
56322;DHT22;42227;6.376;-10.782;2022-11-20T06:21:18;24.00;99.90
56322;DHT22;42227;6.376;-10.782;2022-11-20T06:23:48;24.20;99.90
56322;DHT22;42227;6.376;-10.782;2022-11-20T06:26:21;24.40;99.90
56322;DHT22;42227;6.376;-10.782;2022-11-20T06:28:51;24.10;99.90
56322;DHT22;42227;6.376;-10.782;2022-11-20T06:31:21;24.20;99.90
56322;DHT22;42227;6.376;-10.782;2022-11-20T06:33:50;24.30;99.90
56322;DHT22;42227;6.376;-10.782;2022-11-20T06:36:20;24.30;99.90
56322;DHT22;42227;6.376;-10.782;2022-11-20T06:38:49;24.30;99.90
56322;DHT22;42227;6.376;-10.782;2022-11-20T06:41:19;24.30;99.90
56322;DHT22;42227;6.376;-10.782;2022-11-20T06:43:48;24.30;99.90
56322;DHT22;42227;6.376;-10.782;2022-11-20T06:46:18;24.30;99.90
56322;DHT22;42227;6.376;-10.782;2022-11-20T06:48:50;24.30;99.90
56322;DHT22;42227;6.376;-10.782;2022-11-20T06:51:18;24.20;99.90
56322;DHT22;42227;6.376;-10.782;2022-11-20T06:53:46;24.30;99.90
56322;DHT22;42227;6.376;-10.782;2022-11-20T06:56:14;24.30;99.90
56322;DHT22;42227;6.376;-10.782;2022-11-20T06:58:43;24.30;99.90
56322;DHT22;42227;6.376;-10.782;2022-11-20T07:01:13;24.30;99.90
56322;DHT22;42227;6.376;-10.782;2022-11-20T07:03:41;24.40;99.90
56322;DHT22;42227;6.376;-10.782;2022-11-20T07:06:10;24.40;99.90
56322;DHT22;42227;6.376;-10.782;2022-11-20T07:08:38;24.30;99.90
56322;DHT22;42227;6.376;-10.782;2022-11-20T07:11:07;24.40;99.90
56322;DHT22;42227;6.376;-10.782;2022-11-20T07:13:35;24.70;99.90
56322;DHT22;42227;6.376;-10.782;2022-11-20T07:16:06;24.90;99.90
56322;DHT22;42227;6.376;-10.782;2022-11-20T07:18:35;24.80;99.90
56322;DHT22;42227;6.376;-10.782;2022-11-20T07:21:05;25.00;99.90
56322;DHT22;42227;6.376;-10.782;2022-11-20T07:23:34;25.00;99.90
56322;DHT22;42227;6.376;-10.782;2022-11-20T07:26:10;25.10;99.90
56322;DHT22;42227;6.376;-10.782;2022-11-20T07:28:38;25.30;99.90
56322;DHT22;42227;6.376;-10.782;2022-11-20T07:31:07;25.70;99.90
56322;DHT22;42227;6.376;-10.782;2022-11-20T07:33:35;26.20;99.90
56322;DHT22;42227;6.376;-10.782;2022-11-20T07:36:03;26.30;99.90
56322;DHT22;42227;6.376;-10.782;2022-11-20T07:38:32;26.10;99.90
56322;DHT22;42227;6.376;-10.782;2022-11-20T07:41:00;26.50;99.90
56322;DHT22;42227;6.376;-10.782;2022-11-20T07:43:28;27.30;99.90
56322;DHT22;42227;6.376;-10.782;2022-11-20T07:45:58;27.90;99.90
56322;DHT22;42227;6.376;-10.782;2022-11-20T07:48:27;27.50;99.90
56322;DHT22;42227;6.376;-10.782;2022-11-20T07:50:56;27.20;99.90
56322;DHT22;42227;6.376;-10.782;2022-11-20T07:53:24;27.20;99.90
56322;DHT22;42227;6.376;-10.782;2022-11-20T07:56:05;26.70;99.90
56322;DHT22;42227;6.376;-10.782;2022-11-20T07:58:34;26.60;99.90
56322;DHT22;42227;6.376;-10.782;2022-11-20T08:01:07;26.50;99.90
56322;DHT22;42227;6.376;-10.782;2022-11-20T08:03:36;26.50;99.90
56322;DHT22;42227;6.376;-10.782;2022-11-20T08:06:05;26.40;99.90
56322;DHT22;42227;6.376;-10.782;2022-11-20T08:08:33;26.50;99.90
56322;DHT22;42227;6.376;-10.782;2022-11-20T08:11:08;27.50;99.90
56322;DHT22;42227;6.376;-10.782;2022-11-20T08:13:37;28.80;99.90
56322;DHT22;42227;6.376;-10.782;2022-11-20T08:16:05;30.60;99.90
56322;DHT22;42227;6.376;-10.782;2022-11-20T08:18:33;31.90;99.90
56322;DHT22;42227;6.376;-10.782;2022-11-20T08:21:03;31.60;99.90
56322;DHT22;42227;6.376;-10.782;2022-11-20T08:23:31;31.60;99.90
56322;DHT22;42227;6.376;-10.782;2022-11-20T08:26:00;30.20;99.90
56322;DHT22;42227;6.376;-10.782;2022-11-20T08:28:28;30.00;99.90
56322;DHT22;42227;6.376;-10.782;2022-11-20T08:31:02;29.20;99.90
56322;DHT22;42227;6.376;-10.782;2022-11-20T08:33:31;28.20;99.90
56322;DHT22;42227;6.376;-10.782;2022-11-20T08:36:02;28.00;99.90
56322;DHT22;42227;6.376;-10.782;2022-11-20T08:38:32;28.10;99.90
56322;DHT22;42227;6.376;-10.782;2022-11-20T08:41:01;27.80;99.90
56322;DHT22;42227;6.376;-10.782;2022-11-20T08:43:29;28.50;99.90
56322;DHT22;42227;6.376;-10.782;2022-11-20T08:45:58;28.70;99.90
56322;DHT22;42227;6.376;-10.782;2022-11-20T08:48:27;29.00;99.90
56322;DHT22;42227;6.376;-10.782;2022-11-20T08:50:58;29.00;99.90
56322;DHT22;42227;6.376;-10.782;2022-11-20T08:53:27;28.70;99.90
56322;DHT22;42227;6.376;-10.782;2022-11-20T08:55:57;28.50;99.90
56322;DHT22;42227;6.376;-10.782;2022-11-20T08:58:26;29.10;99.90
56322;DHT22;42227;6.376;-10.782;2022-11-20T09:00:54;29.10;99.90
56322;DHT22;42227;6.376;-10.782;2022-11-20T09:03:23;29.30;99.90
56322;DHT22;42227;6.376;-10.782;2022-11-20T09:06:04;29.20;99.90
56322;DHT22;42227;6.376;-10.782;2022-11-20T09:08:32;29.50;99.90
56322;DHT22;42227;6.376;-10.782;2022-11-20T09:11:01;29.70;99.90
56322;DHT22;42227;6.376;-10.782;2022-11-20T09:13:31;29.00;99.90
56322;DHT22;42227;6.376;-10.782;2022-11-20T09:16:05;29.80;99.90
56322;DHT22;42227;6.376;-10.782;2022-11-20T09:18:35;28.40;99.90
56322;DHT22;42227;6.376;-10.782;2022-11-20T09:21:06;29.30;99.90
56322;DHT22;42227;6.376;-10.782;2022-11-20T09:23:36;28.90;99.90
56322;DHT22;42227;6.376;-10.782;2022-11-20T09:26:06;29.70;99.90
56322;DHT22;42227;6.376;-10.782;2022-11-20T09:28:35;29.60;99.90
56322;DHT22;42227;6.376;-10.782;2022-11-20T09:31:08;29.60;99.90
56322;DHT22;42227;6.376;-10.782;2022-11-20T09:33:37;29.90;99.90
56322;DHT22;42227;6.376;-10.782;2022-11-20T09:36:05;30.20;99.90
56322;DHT22;42227;6.376;-10.782;2022-11-20T09:38:33;30.10;99.90
56322;DHT22;42227;6.376;-10.782;2022-11-20T09:41:06;30.20;99.90
56322;DHT22;42227;6.376;-10.782;2022-11-20T09:43:57;30.40;99.90
56322;DHT22;42227;6.376;-10.782;2022-11-20T09:46:43;30.40;99.90
56322;DHT22;42227;6.376;-10.782;2022-11-20T09:55:02;30.60;99.90
56322;DHT22;42227;6.376;-10.782;2022-11-20T09:57:36;30.40;99.90
56322;DHT22;42227;6.376;-10.782;2022-11-20T10:00:09;30.80;99.90
56322;DHT22;42227;6.376;-10.782;2022-11-20T10:02:55;31.20;99.90
56322;DHT22;42227;6.376;-10.782;2022-11-20T10:05:47;30.80;99.90
56322;DHT22;42227;6.376;-10.782;2022-11-20T10:11:00;31.10;99.90
56322;DHT22;42227;6.376;-10.782;2022-11-20T10:13:55;31.20;99.90
56322;DHT22;42227;6.376;-10.782;2022-11-20T10:21:53;31.40;99.90
56322;DHT22;42227;6.376;-10.782;2022-11-20T10:24:41;31.30;99.90
56322;DHT22;42227;6.376;-10.782;2022-11-20T10:30:08;31.40;99.90
56322;DHT22;42227;6.376;-10.782;2022-11-20T10:32:43;31.20;99.90
56322;DHT22;42227;6.376;-10.782;2022-11-20T10:37:59;31.10;99.90
56322;DHT22;42227;6.376;-10.782;2022-11-20T10:40:52;31.40;99.90
56322;DHT22;42227;6.376;-10.782;2022-11-20T10:43:33;30.80;99.90
56322;DHT22;42227;6.376;-10.782;2022-11-20T10:46:22;30.20;99.90
56322;DHT22;42227;6.376;-10.782;2022-11-20T10:48:51;29.50;99.90
56322;DHT22;42227;6.376;-10.782;2022-11-20T10:51:37;29.40;99.90
56322;DHT22;42227;6.376;-10.782;2022-11-20T10:54:12;30.10;99.90
56322;DHT22;42227;6.376;-10.782;2022-11-20T10:56:51;30.50;99.90
56322;DHT22;42227;6.376;-10.782;2022-11-20T11:02:24;30.10;99.90
56322;DHT22;42227;6.376;-10.782;2022-11-20T11:04:59;30.50;99.90
56322;DHT22;42227;6.376;-10.782;2022-11-20T11:07:40;30.50;99.90
56322;DHT22;42227;6.376;-10.782;2022-11-20T11:10:18;30.40;99.90
56322;DHT22;42227;6.376;-10.782;2022-11-20T11:12:49;30.60;99.90
56322;DHT22;42227;6.376;-10.782;2022-11-20T11:15:29;30.60;99.90
56322;DHT22;42227;6.376;-10.782;2022-11-20T11:17:57;30.70;99.90
56322;DHT22;42227;6.376;-10.782;2022-11-20T11:20:26;31.00;99.90
56322;DHT22;42227;6.376;-10.782;2022-11-20T11:22:58;31.30;99.90
56322;DHT22;42227;6.376;-10.782;2022-11-20T11:25:29;31.50;99.90
56322;DHT22;42227;6.376;-10.782;2022-11-20T11:28:03;31.20;99.90
56322;DHT22;42227;6.376;-10.782;2022-11-20T11:30:43;30.90;99.90
56322;DHT22;42227;6.376;-10.782;2022-11-20T11:33:22;30.70;99.90
56322;DHT22;42227;6.376;-10.782;2022-11-20T11:35:54;30.90;99.90
56322;DHT22;42227;6.376;-10.782;2022-11-20T11:40:59;30.40;99.90
56322;DHT22;42227;6.376;-10.782;2022-11-20T11:43:31;30.70;99.90
56322;DHT22;42227;6.376;-10.782;2022-11-20T11:46:21;30.90;99.90
56322;DHT22;42227;6.376;-10.782;2022-11-20T11:51:33;30.60;99.90
56322;DHT22;42227;6.376;-10.782;2022-11-20T11:54:05;30.60;99.90
56322;DHT22;42227;6.376;-10.782;2022-11-20T11:56:38;30.40;99.90
56322;DHT22;42227;6.376;-10.782;2022-11-20T11:59:12;30.40;99.90
56322;DHT22;42227;6.376;-10.782;2022-11-20T12:01:47;30.20;99.90
56322;DHT22;42227;6.376;-10.782;2022-11-20T12:04:44;30.80;99.90
56322;DHT22;42227;6.376;-10.782;2022-11-20T12:07:29;31.20;99.90
56322;DHT22;42227;6.376;-10.782;2022-11-20T12:10:23;30.90;99.90
56322;DHT22;42227;6.376;-10.782;2022-11-20T12:13:17;31.00;99.90
56322;DHT22;42227;6.376;-10.782;2022-11-20T12:15:45;31.00;99.90
56322;DHT22;42227;6.376;-10.782;2022-11-20T12:18:21;31.10;99.90
56322;DHT22;42227;6.376;-10.782;2022-11-20T12:23:53;30.80;99.90
56322;DHT22;42227;6.376;-10.782;2022-11-20T12:40:38;31.50;99.90
56322;DHT22;42227;6.376;-10.782;2022-11-20T12:52:06;31.00;99.90
56322;DHT22;42227;6.376;-10.782;2022-11-20T12:54:51;31.40;99.90
56322;DHT22;42227;6.376;-10.782;2022-11-20T13:00:08;31.50;99.90
56322;DHT22;42227;6.376;-10.782;2022-11-20T13:08:11;31.20;99.90
56322;DHT22;42227;6.376;-10.782;2022-11-20T13:13:42;31.40;99.90
56322;DHT22;42227;6.376;-10.782;2022-11-20T13:19:03;31.70;99.90
56322;DHT22;42227;6.376;-10.782;2022-11-20T13:21:42;31.30;99.90
56322;DHT22;42227;6.376;-10.782;2022-11-20T13:29:36;31.30;99.90
56322;DHT22;42227;6.376;-10.782;2022-11-20T13:32:16;31.20;99.90
56322;DHT22;42227;6.376;-10.782;2022-11-20T13:34:56;31.30;99.90
56322;DHT22;42227;6.376;-10.782;2022-11-20T13:37:32;31.40;99.90
56322;DHT22;42227;6.376;-10.782;2022-11-20T13:42:51;31.40;99.90
56322;DHT22;42227;6.376;-10.782;2022-11-20T13:45:28;31.30;99.90
56322;DHT22;42227;6.376;-10.782;2022-11-20T13:48:02;31.60;99.90
56322;DHT22;42227;6.376;-10.782;2022-11-20T13:50:43;31.40;99.90
56322;DHT22;42227;6.376;-10.782;2022-11-20T13:53:23;31.40;99.90
56322;DHT22;42227;6.376;-10.782;2022-11-20T13:56:35;31.50;99.90
56322;DHT22;42227;6.376;-10.782;2022-11-20T13:59:21;31.50;99.90
56322;DHT22;42227;6.376;-10.782;2022-11-20T14:01:55;31.30;99.90
56322;DHT22;42227;6.376;-10.782;2022-11-20T14:04:29;31.00;99.90
56322;DHT22;42227;6.376;-10.782;2022-11-20T14:06:58;31.00;99.90
56322;DHT22;42227;6.376;-10.782;2022-11-20T14:09:29;31.30;99.90
56322;DHT22;42227;6.376;-10.782;2022-11-20T14:11:58;31.10;99.90
56322;DHT22;42227;6.376;-10.782;2022-11-20T14:14:28;31.20;99.90
56322;DHT22;42227;6.376;-10.782;2022-11-20T14:19:48;31.50;99.90
56322;DHT22;42227;6.376;-10.782;2022-11-20T14:22:22;31.40;99.90
56322;DHT22;42227;6.376;-10.782;2022-11-20T14:27:42;31.50;99.90
56322;DHT22;42227;6.376;-10.782;2022-11-20T14:30:15;31.50;99.90
56322;DHT22;42227;6.376;-10.782;2022-11-20T14:32:45;31.40;99.90
56322;DHT22;42227;6.376;-10.782;2022-11-20T14:35:24;31.40;99.90
56322;DHT22;42227;6.376;-10.782;2022-11-20T14:37:53;31.50;99.90
56322;DHT22;42227;6.376;-10.782;2022-11-20T14:40:33;31.50;99.90
56322;DHT22;42227;6.376;-10.782;2022-11-20T14:43:22;31.40;99.90
56322;DHT22;42227;6.376;-10.782;2022-11-20T14:46:09;31.20;99.90
56322;DHT22;42227;6.376;-10.782;2022-11-20T14:48:49;31.00;99.90
56322;DHT22;42227;6.376;-10.782;2022-11-20T14:51:34;30.60;99.90
56322;DHT22;42227;6.376;-10.782;2022-11-20T14:54:19;30.50;99.90
56322;DHT22;42227;6.376;-10.782;2022-11-20T14:57:02;30.50;99.90
56322;DHT22;42227;6.376;-10.782;2022-11-20T14:59:33;30.60;99.90
56322;DHT22;42227;6.376;-10.782;2022-11-20T15:02:05;30.70;99.90
56322;DHT22;42227;6.376;-10.782;2022-11-20T15:04:43;30.50;99.90
56322;DHT22;42227;6.376;-10.782;2022-11-20T15:07:22;30.30;99.90
56322;DHT22;42227;6.376;-10.782;2022-11-20T15:10:08;30.40;99.90
56322;DHT22;42227;6.376;-10.782;2022-11-20T15:12:59;30.40;99.90
56322;DHT22;42227;6.376;-10.782;2022-11-20T15:15:35;30.30;99.90
56322;DHT22;42227;6.376;-10.782;2022-11-20T15:18:04;30.40;99.90
56322;DHT22;42227;6.376;-10.782;2022-11-20T15:20:33;30.60;99.90
56322;DHT22;42227;6.376;-10.782;2022-11-20T15:23:12;30.60;99.90
56322;DHT22;42227;6.376;-10.782;2022-11-20T15:25:41;30.60;99.90
56322;DHT22;42227;6.376;-10.782;2022-11-20T15:28:20;30.60;99.90
56322;DHT22;42227;6.376;-10.782;2022-11-20T15:30:49;30.70;99.90
56322;DHT22;42227;6.376;-10.782;2022-11-20T15:33:18;30.50;99.90
56322;DHT22;42227;6.376;-10.782;2022-11-20T15:35:46;30.40;99.90
56322;DHT22;42227;6.376;-10.782;2022-11-20T15:38:14;30.50;99.90
56322;DHT22;42227;6.376;-10.782;2022-11-20T15:40:43;30.70;99.90
56322;DHT22;42227;6.376;-10.782;2022-11-20T15:43:11;30.70;99.90
56322;DHT22;42227;6.376;-10.782;2022-11-20T15:45:44;30.70;99.90
56322;DHT22;42227;6.376;-10.782;2022-11-20T15:48:16;30.50;99.90
56322;DHT22;42227;6.376;-10.782;2022-11-20T15:53:40;30.60;99.90
56322;DHT22;42227;6.376;-10.782;2022-11-20T15:56:12;30.50;99.90
56322;DHT22;42227;6.376;-10.782;2022-11-20T15:58:41;30.30;99.90
56322;DHT22;42227;6.376;-10.782;2022-11-20T16:01:15;30.30;99.90
56322;DHT22;42227;6.376;-10.782;2022-11-20T16:03:43;30.40;99.90
56322;DHT22;42227;6.376;-10.782;2022-11-20T16:06:12;30.20;99.90
56322;DHT22;42227;6.376;-10.782;2022-11-20T16:08:40;30.10;99.90
56322;DHT22;42227;6.376;-10.782;2022-11-20T16:11:14;30.10;99.90
56322;DHT22;42227;6.376;-10.782;2022-11-20T16:13:43;30.40;99.90
56322;DHT22;42227;6.376;-10.782;2022-11-20T16:18:59;30.20;99.90
56322;DHT22;42227;6.376;-10.782;2022-11-20T16:21:28;30.10;99.90
56322;DHT22;42227;6.376;-10.782;2022-11-20T16:24:01;30.10;99.90
56322;DHT22;42227;6.376;-10.782;2022-11-20T16:26:30;30.10;99.90
56322;DHT22;42227;6.376;-10.782;2022-11-20T16:29:00;30.10;99.90
56322;DHT22;42227;6.376;-10.782;2022-11-20T16:31:29;30.10;99.90
56322;DHT22;42227;6.376;-10.782;2022-11-20T16:33:59;30.00;99.90
56322;DHT22;42227;6.376;-10.782;2022-11-20T16:36:28;30.00;99.90
56322;DHT22;42227;6.376;-10.782;2022-11-20T16:38:58;29.90;99.90
56322;DHT22;42227;6.376;-10.782;2022-11-20T16:41:29;30.10;99.90
56322;DHT22;42227;6.376;-10.782;2022-11-20T16:44:00;30.10;99.90
56322;DHT22;42227;6.376;-10.782;2022-11-20T16:46:30;29.80;99.90
56322;DHT22;42227;6.376;-10.782;2022-11-20T16:49:01;29.80;99.90
56322;DHT22;42227;6.376;-10.782;2022-11-20T16:51:31;29.70;99.90
56322;DHT22;42227;6.376;-10.782;2022-11-20T16:54:05;29.80;99.90
56322;DHT22;42227;6.376;-10.782;2022-11-20T16:56:34;29.80;99.90
56322;DHT22;42227;6.376;-10.782;2022-11-20T16:59:03;29.60;99.90
56322;DHT22;42227;6.376;-10.782;2022-11-20T17:01:31;29.50;99.90
56322;DHT22;42227;6.376;-10.782;2022-11-20T17:04:04;29.60;99.90
56322;DHT22;42227;6.376;-10.782;2022-11-20T17:06:35;29.50;99.90
56322;DHT22;42227;6.376;-10.782;2022-11-20T17:09:04;29.40;99.90
56322;DHT22;42227;6.376;-10.782;2022-11-20T17:11:32;29.20;99.90
56322;DHT22;42227;6.376;-10.782;2022-11-20T17:14:01;29.40;99.90